sensor_id;sensor_type;location;lat;lon;timestamp;temperature;humidity
15328;DHT22;7764;51.430;6.840;2022-08-11T00:02:26;22.90;85.30
15328;DHT22;7764;51.430;6.840;2022-08-11T00:04:55;22.90;86.10
15328;DHT22;7764;51.430;6.840;2022-08-11T00:07:23;22.80;87.10
15328;DHT22;7764;51.430;6.840;2022-08-11T00:09:51;22.80;87.80
15328;DHT22;7764;51.430;6.840;2022-08-11T00:12:19;22.80;89.00
15328;DHT22;7764;51.430;6.840;2022-08-11T00:14:55;22.80;89.80
15328;DHT22;7764;51.430;6.840;2022-08-11T00:17:26;22.70;90.30
15328;DHT22;7764;51.430;6.840;2022-08-11T00:20:00;22.70;90.80
15328;DHT22;7764;51.430;6.840;2022-08-11T00:22:28;22.60;91.00
15328;DHT22;7764;51.430;6.840;2022-08-11T00:24:56;22.60;91.40
15328;DHT22;7764;51.430;6.840;2022-08-11T00:27:31;22.60;91.80
15328;DHT22;7764;51.430;6.840;2022-08-11T00:30:01;22.60;92.30
15328;DHT22;7764;51.430;6.840;2022-08-11T00:32:29;22.60;92.60
15328;DHT22;7764;51.430;6.840;2022-08-11T00:34:57;22.50;93.10
15328;DHT22;7764;51.430;6.840;2022-08-11T00:37:26;22.50;94.10
15328;DHT22;7764;51.430;6.840;2022-08-11T00:39:54;22.40;95.00
15328;DHT22;7764;51.430;6.840;2022-08-11T00:42:29;22.40;95.70
15328;DHT22;7764;51.430;6.840;2022-08-11T00:45:09;22.40;96.70
15328;DHT22;7764;51.430;6.840;2022-08-11T00:47:47;22.40;96.50
15328;DHT22;7764;51.430;6.840;2022-08-11T00:50:26;22.30;97.50
15328;DHT22;7764;51.430;6.840;2022-08-11T00:53:22;22.30;99.50
15328;DHT22;7764;51.430;6.840;2022-08-11T00:59:22;22.30;99.90
15328;DHT22;7764;51.430;6.840;2022-08-11T01:02:11;22.20;99.90
15328;DHT22;7764;51.430;6.840;2022-08-11T01:05:13;22.20;99.90
15328;DHT22;7764;51.430;6.840;2022-08-11T01:11:16;22.10;99.90
15328;DHT22;7764;51.430;6.840;2022-08-11T01:14:14;22.00;99.90
15328;DHT22;7764;51.430;6.840;2022-08-11T01:17:04;22.00;99.90
15328;DHT22;7764;51.430;6.840;2022-08-11T01:19:55;21.90;99.90
15328;DHT22;7764;51.430;6.840;2022-08-11T01:26:09;21.80;99.90
15328;DHT22;7764;51.430;6.840;2022-08-11T01:29:17;21.80;99.90
15328;DHT22;7764;51.430;6.840;2022-08-11T01:32:21;21.80;99.90
15328;DHT22;7764;51.430;6.840;2022-08-11T01:35:47;21.70;99.90
15328;DHT22;7764;51.430;6.840;2022-08-11T01:41:41;21.70;99.90
15328;DHT22;7764;51.430;6.840;2022-08-11T01:45:06;21.60;99.90
15328;DHT22;7764;51.430;6.840;2022-08-11T01:47:41;21.60;99.90
15328;DHT22;7764;51.430;6.840;2022-08-11T01:50:34;21.60;99.90
15328;DHT22;7764;51.430;6.840;2022-08-11T01:53:17;21.50;99.90
15328;DHT22;7764;51.430;6.840;2022-08-11T01:55:52;21.40;99.90
15328;DHT22;7764;51.430;6.840;2022-08-11T01:58:28;21.30;99.90
15328;DHT22;7764;51.430;6.840;2022-08-11T02:01:04;21.20;99.90
15328;DHT22;7764;51.430;6.840;2022-08-11T02:03:40;21.10;99.90
15328;DHT22;7764;51.430;6.840;2022-08-11T02:06:15;21.00;99.90
15328;DHT22;7764;51.430;6.840;2022-08-11T02:09:08;21.00;99.90
15328;DHT22;7764;51.430;6.840;2022-08-11T02:11:39;20.90;99.90
15328;DHT22;7764;51.430;6.840;2022-08-11T02:14:19;20.90;99.90
15328;DHT22;7764;51.430;6.840;2022-08-11T02:16:58;20.90;99.90
15328;DHT22;7764;51.430;6.840;2022-08-11T02:19:37;20.80;99.90
15328;DHT22;7764;51.430;6.840;2022-08-11T02:22:37;20.80;99.90
15328;DHT22;7764;51.430;6.840;2022-08-11T02:25:32;20.80;99.90
15328;DHT22;7764;51.430;6.840;2022-08-11T02:28:06;20.70;99.90
15328;DHT22;7764;51.430;6.840;2022-08-11T02:30:38;20.70;99.90
15328;DHT22;7764;51.430;6.840;2022-08-11T02:33:20;20.60;99.90
15328;DHT22;7764;51.430;6.840;2022-08-11T02:35:57;20.70;99.90
15328;DHT22;7764;51.430;6.840;2022-08-11T02:38:30;20.60;99.90
15328;DHT22;7764;51.430;6.840;2022-08-11T02:41:09;20.60;99.90
15328;DHT22;7764;51.430;6.840;2022-08-11T02:44:05;20.60;99.90
15328;DHT22;7764;51.430;6.840;2022-08-11T02:46:55;20.60;99.90
15328;DHT22;7764;51.430;6.840;2022-08-11T02:49:36;20.50;99.90
15328;DHT22;7764;51.430;6.840;2022-08-11T02:52:30;20.50;99.90
15328;DHT22;7764;51.430;6.840;2022-08-11T02:55:17;20.50;99.90
15328;DHT22;7764;51.430;6.840;2022-08-11T02:57:52;20.50;99.90
15328;DHT22;7764;51.430;6.840;2022-08-11T03:00:20;20.40;99.90
15328;DHT22;7764;51.430;6.840;2022-08-11T03:02:59;20.40;99.90
15328;DHT22;7764;51.430;6.840;2022-08-11T03:05:41;20.40;99.90
15328;DHT22;7764;51.430;6.840;2022-08-11T03:08:15;20.30;99.90
15328;DHT22;7764;51.430;6.840;2022-08-11T03:10:53;20.40;99.90
15328;DHT22;7764;51.430;6.840;2022-08-11T03:13:48;20.50;99.90
15328;DHT22;7764;51.430;6.840;2022-08-11T03:16:42;20.40;99.90
15328;DHT22;7764;51.430;6.840;2022-08-11T03:19:17;20.50;99.90
15328;DHT22;7764;51.430;6.840;2022-08-11T03:21:54;20.50;99.90
15328;DHT22;7764;51.430;6.840;2022-08-11T03:24:26;20.50;99.90
15328;DHT22;7764;51.430;6.840;2022-08-11T03:27:04;20.50;99.90
15328;DHT22;7764;51.430;6.840;2022-08-11T03:29:38;20.40;99.90
15328;DHT22;7764;51.430;6.840;2022-08-11T03:32:18;20.50;99.90
15328;DHT22;7764;51.430;6.840;2022-08-11T03:34:47;20.40;99.90
15328;DHT22;7764;51.430;6.840;2022-08-11T03:37:40;20.40;99.90
15328;DHT22;7764;51.430;6.840;2022-08-11T03:40:35;20.40;99.90
15328;DHT22;7764;51.430;6.840;2022-08-11T03:43:32;20.40;99.90
15328;DHT22;7764;51.430;6.840;2022-08-11T03:46:09;20.40;99.90
15328;DHT22;7764;51.430;6.840;2022-08-11T03:48:46;20.40;99.90
15328;DHT22;7764;51.430;6.840;2022-08-11T03:51:18;20.40;99.90
15328;DHT22;7764;51.430;6.840;2022-08-11T03:53:59;20.40;99.90
15328;DHT22;7764;51.430;6.840;2022-08-11T04:00:17;20.40;99.90
15328;DHT22;7764;51.430;6.840;2022-08-11T04:03:24;20.30;99.90
15328;DHT22;7764;51.430;6.840;2022-08-11T04:06:49;20.30;99.90
15328;DHT22;7764;51.430;6.840;2022-08-11T04:10:09;20.30;99.90
15328;DHT22;7764;51.430;6.840;2022-08-11T04:13:11;20.20;99.90
15328;DHT22;7764;51.430;6.840;2022-08-11T04:18:50;20.10;99.90
15328;DHT22;7764;51.430;6.840;2022-08-11T04:22:07;20.00;99.90
15328;DHT22;7764;51.430;6.840;2022-08-11T04:25:08;20.00;99.90
15328;DHT22;7764;51.430;6.840;2022-08-11T04:30:58;20.00;99.90
15328;DHT22;7764;51.430;6.840;2022-08-11T04:33:48;20.10;99.90
15328;DHT22;7764;51.430;6.840;2022-08-11T04:36:46;20.10;99.90
15328;DHT22;7764;51.430;6.840;2022-08-11T04:39:52;20.10;99.90
15328;DHT22;7764;51.430;6.840;2022-08-11T04:49:37;20.20;99.90
15328;DHT22;7764;51.430;6.840;2022-08-11T04:52:43;20.20;99.90
15328;DHT22;7764;51.430;6.840;2022-08-11T04:55:44;20.30;99.90
15328;DHT22;7764;51.430;6.840;2022-08-11T04:58:48;20.20;99.90
15328;DHT22;7764;51.430;6.840;2022-08-11T05:01:49;20.20;99.90
15328;DHT22;7764;51.430;6.840;2022-08-11T05:08:06;21.00;99.90
15328;DHT22;7764;51.430;6.840;2022-08-11T05:10:50;21.60;99.90
15328;DHT22;7764;51.430;6.840;2022-08-11T05:13:27;21.80;99.90
15328;DHT22;7764;51.430;6.840;2022-08-11T05:16:14;22.20;99.90
15328;DHT22;7764;51.430;6.840;2022-08-11T05:19:02;22.50;99.90
15328;DHT22;7764;51.430;6.840;2022-08-11T05:21:52;22.70;99.90
15328;DHT22;7764;51.430;6.840;2022-08-11T05:24:42;23.00;99.90
15328;DHT22;7764;51.430;6.840;2022-08-11T05:27:32;23.10;99.90
15328;DHT22;7764;51.430;6.840;2022-08-11T05:30:18;23.10;99.90
15328;DHT22;7764;51.430;6.840;2022-08-11T05:33:07;23.00;99.90
15328;DHT22;7764;51.430;6.840;2022-08-11T05:36:01;23.00;99.90
15328;DHT22;7764;51.430;6.840;2022-08-11T05:38:35;22.70;99.90
15328;DHT22;7764;51.430;6.840;2022-08-11T05:41:23;22.60;99.90
15328;DHT22;7764;51.430;6.840;2022-08-11T05:44:09;22.40;99.90
15328;DHT22;7764;51.430;6.840;2022-08-11T05:47:00;22.10;99.90
15328;DHT22;7764;51.430;6.840;2022-08-11T05:49:49;22.10;99.90
15328;DHT22;7764;51.430;6.840;2022-08-11T05:52:34;22.20;99.90
15328;DHT22;7764;51.430;6.840;2022-08-11T05:55:20;22.50;99.90
15328;DHT22;7764;51.430;6.840;2022-08-11T05:58:07;23.20;99.90
15328;DHT22;7764;51.430;6.840;2022-08-11T06:00:41;23.70;99.90
15328;DHT22;7764;51.430;6.840;2022-08-11T06:03:08;24.30;95.90
15328;DHT22;7764;51.430;6.840;2022-08-11T06:05:37;24.30;94.60
15328;DHT22;7764;51.430;6.840;2022-08-11T06:08:07;24.70;92.70
15328;DHT22;7764;51.430;6.840;2022-08-11T06:10:36;25.10;91.10
15328;DHT22;7764;51.430;6.840;2022-08-11T06:13:07;25.20;90.20
15328;DHT22;7764;51.430;6.840;2022-08-11T06:15:43;25.60;86.00
15328;DHT22;7764;51.430;6.840;2022-08-11T06:18:11;25.90;84.30
15328;DHT22;7764;51.430;6.840;2022-08-11T06:20:46;26.20;82.50
15328;DHT22;7764;51.430;6.840;2022-08-11T06:23:13;26.50;80.20
15328;DHT22;7764;51.430;6.840;2022-08-11T06:25:43;26.90;76.60
15328;DHT22;7764;51.430;6.840;2022-08-11T06:28:13;26.90;75.60
15328;DHT22;7764;51.430;6.840;2022-08-11T06:30:43;27.10;74.90
15328;DHT22;7764;51.430;6.840;2022-08-11T06:33:13;27.00;75.20
15328;DHT22;7764;51.430;6.840;2022-08-11T06:36:02;27.00;74.70
15328;DHT22;7764;51.430;6.840;2022-08-11T06:38:39;27.30;73.20
15328;DHT22;7764;51.430;6.840;2022-08-11T06:41:17;27.50;72.10
15328;DHT22;7764;51.430;6.840;2022-08-11T06:44:18;27.80;71.40
15328;DHT22;7764;51.430;6.840;2022-08-11T06:46:51;27.80;71.10
15328;DHT22;7764;51.430;6.840;2022-08-11T06:49:25;27.90;69.60
15328;DHT22;7764;51.430;6.840;2022-08-11T06:52:16;28.00;68.30
15328;DHT22;7764;51.430;6.840;2022-08-11T06:54:50;28.20;67.00
15328;DHT22;7764;51.430;6.840;2022-08-11T06:57:21;28.20;67.40
15328;DHT22;7764;51.430;6.840;2022-08-11T07:00:09;28.30;66.70
15328;DHT22;7764;51.430;6.840;2022-08-11T07:02:57;28.20;66.70
15328;DHT22;7764;51.430;6.840;2022-08-11T07:05:30;27.90;67.70
15328;DHT22;7764;51.430;6.840;2022-08-11T07:08:42;28.00;67.80
15328;DHT22;7764;51.430;6.840;2022-08-11T07:12:01;28.00;67.30
15328;DHT22;7764;51.430;6.840;2022-08-11T07:14:52;28.30;66.50
15328;DHT22;7764;51.430;6.840;2022-08-11T07:17:42;28.50;65.70
15328;DHT22;7764;51.430;6.840;2022-08-11T07:20:15;28.20;64.70
15328;DHT22;7764;51.430;6.840;2022-08-11T07:23:02;28.70;63.10
15328;DHT22;7764;51.430;6.840;2022-08-11T07:25:51;29.20;63.00
15328;DHT22;7764;51.430;6.840;2022-08-11T07:28:39;29.10;62.60
15328;DHT22;7764;51.430;6.840;2022-08-11T07:31:29;28.90;61.40
15328;DHT22;7764;51.430;6.840;2022-08-11T07:34:08;29.40;60.30
15328;DHT22;7764;51.430;6.840;2022-08-11T07:36:38;29.60;59.90
15328;DHT22;7764;51.430;6.840;2022-08-11T07:39:07;29.80;60.00
15328;DHT22;7764;51.430;6.840;2022-08-11T07:41:36;30.00;59.40
15328;DHT22;7764;51.430;6.840;2022-08-11T07:44:04;30.10;59.20
15328;DHT22;7764;51.430;6.840;2022-08-11T07:46:38;29.90;59.40
15328;DHT22;7764;51.430;6.840;2022-08-11T07:49:26;29.90;60.50
15328;DHT22;7764;51.430;6.840;2022-08-11T07:52:12;29.70;60.40
15328;DHT22;7764;51.430;6.840;2022-08-11T07:54:59;29.50;61.20
15328;DHT22;7764;51.430;6.840;2022-08-11T07:57:28;29.40;61.40
15328;DHT22;7764;51.430;6.840;2022-08-11T08:00:14;29.60;61.30
15328;DHT22;7764;51.430;6.840;2022-08-11T08:03:00;29.40;61.80
15328;DHT22;7764;51.430;6.840;2022-08-11T08:05:49;29.40;61.60
15328;DHT22;7764;51.430;6.840;2022-08-11T08:08:34;29.50;61.40
15328;DHT22;7764;51.430;6.840;2022-08-11T08:11:20;29.50;60.90
15328;DHT22;7764;51.430;6.840;2022-08-11T08:14:05;29.60;60.10
15328;DHT22;7764;51.430;6.840;2022-08-11T08:16:50;29.40;59.70
15328;DHT22;7764;51.430;6.840;2022-08-11T08:19:37;29.70;59.60
15328;DHT22;7764;51.430;6.840;2022-08-11T08:22:05;29.90;59.40
15328;DHT22;7764;51.430;6.840;2022-08-11T08:24:33;29.80;58.70
15328;DHT22;7764;51.430;6.840;2022-08-11T08:27:00;29.70;58.60
15328;DHT22;7764;51.430;6.840;2022-08-11T08:29:31;29.90;58.50
15328;DHT22;7764;51.430;6.840;2022-08-11T08:32:17;30.00;58.40
15328;DHT22;7764;51.430;6.840;2022-08-11T08:34:45;29.80;59.00
15328;DHT22;7764;51.430;6.840;2022-08-11T08:37:13;29.70;58.60
15328;DHT22;7764;51.430;6.840;2022-08-11T08:39:44;29.80;59.60
15328;DHT22;7764;51.430;6.840;2022-08-11T08:42:12;29.80;59.90
15328;DHT22;7764;51.430;6.840;2022-08-11T08:44:46;29.60;59.90
15328;DHT22;7764;51.430;6.840;2022-08-11T08:47:17;29.60;59.90
15328;DHT22;7764;51.430;6.840;2022-08-11T08:49:47;29.50;59.50
15328;DHT22;7764;51.430;6.840;2022-08-11T08:52:19;29.60;59.30
15328;DHT22;7764;51.430;6.840;2022-08-11T08:54:50;29.60;59.40
15328;DHT22;7764;51.430;6.840;2022-08-11T08:57:21;29.20;59.60
15328;DHT22;7764;51.430;6.840;2022-08-11T08:59:49;29.20;59.70
15328;DHT22;7764;51.430;6.840;2022-08-11T09:02:18;29.50;59.50
15328;DHT22;7764;51.430;6.840;2022-08-11T09:04:46;29.60;59.40
15328;DHT22;7764;51.430;6.840;2022-08-11T09:07:17;29.60;59.40
15328;DHT22;7764;51.430;6.840;2022-08-11T09:09:47;29.50;59.20
15328;DHT22;7764;51.430;6.840;2022-08-11T09:12:15;29.30;58.80
15328;DHT22;7764;51.430;6.840;2022-08-11T09:14:46;29.30;59.00
15328;DHT22;7764;51.430;6.840;2022-08-11T09:17:33;29.50;58.80
15328;DHT22;7764;51.430;6.840;2022-08-11T09:20:04;29.60;58.30
15328;DHT22;7764;51.430;6.840;2022-08-11T09:22:34;29.60;58.70
15328;DHT22;7764;51.430;6.840;2022-08-11T09:25:20;30.00;58.30
15328;DHT22;7764;51.430;6.840;2022-08-11T09:28:09;29.90;58.20
15328;DHT22;7764;51.430;6.840;2022-08-11T09:30:40;29.90;58.10
15328;DHT22;7764;51.430;6.840;2022-08-11T09:33:09;30.00;58.10
15328;DHT22;7764;51.430;6.840;2022-08-11T09:35:38;30.10;57.80
15328;DHT22;7764;51.430;6.840;2022-08-11T09:38:11;30.00;56.60
15328;DHT22;7764;51.430;6.840;2022-08-11T09:40:56;29.90;56.90
15328;DHT22;7764;51.430;6.840;2022-08-11T09:43:24;30.10;56.90
15328;DHT22;7764;51.430;6.840;2022-08-11T09:46:15;30.30;56.50
15328;DHT22;7764;51.430;6.840;2022-08-11T09:48:44;30.00;56.60
15328;DHT22;7764;51.430;6.840;2022-08-11T09:51:13;30.00;56.90
15328;DHT22;7764;51.430;6.840;2022-08-11T09:53:42;29.80;56.70
15328;DHT22;7764;51.430;6.840;2022-08-11T09:56:13;29.70;56.50
15328;DHT22;7764;51.430;6.840;2022-08-11T09:58:59;29.80;56.60
15328;DHT22;7764;51.430;6.840;2022-08-11T10:01:34;29.80;56.60
15328;DHT22;7764;51.430;6.840;2022-08-11T10:04:10;29.70;56.60
15328;DHT22;7764;51.430;6.840;2022-08-11T10:06:40;29.70;56.20
15328;DHT22;7764;51.430;6.840;2022-08-11T10:09:32;29.90;56.90
15328;DHT22;7764;51.430;6.840;2022-08-11T10:12:00;30.00;56.10
15328;DHT22;7764;51.430;6.840;2022-08-11T10:14:29;30.00;54.40
15328;DHT22;7764;51.430;6.840;2022-08-11T10:17:17;30.10;53.70
15328;DHT22;7764;51.430;6.840;2022-08-11T10:19:47;30.20;53.30
15328;DHT22;7764;51.430;6.840;2022-08-11T10:22:16;30.00;52.10
15328;DHT22;7764;51.430;6.840;2022-08-11T10:25:03;29.80;52.40
15328;DHT22;7764;51.430;6.840;2022-08-11T10:27:48;29.90;53.10
15328;DHT22;7764;51.430;6.840;2022-08-11T10:30:24;30.10;52.80
15328;DHT22;7764;51.430;6.840;2022-08-11T10:33:09;30.10;52.40
15328;DHT22;7764;51.430;6.840;2022-08-11T10:35:54;30.20;51.70
15328;DHT22;7764;51.430;6.840;2022-08-11T10:38:21;30.20;52.10
15328;DHT22;7764;51.430;6.840;2022-08-11T10:40:49;30.30;52.00
15328;DHT22;7764;51.430;6.840;2022-08-11T10:43:38;30.30;51.30
15328;DHT22;7764;51.430;6.840;2022-08-11T10:46:06;30.10;51.60
15328;DHT22;7764;51.430;6.840;2022-08-11T10:48:54;30.00;51.50
15328;DHT22;7764;51.430;6.840;2022-08-11T10:51:22;30.00;51.90
15328;DHT22;7764;51.430;6.840;2022-08-11T10:54:07;30.00;51.60
15328;DHT22;7764;51.430;6.840;2022-08-11T10:56:54;30.10;51.70
15328;DHT22;7764;51.430;6.840;2022-08-11T10:59:39;30.10;51.10
15328;DHT22;7764;51.430;6.840;2022-08-11T11:02:08;30.30;51.30
15328;DHT22;7764;51.430;6.840;2022-08-11T11:04:47;30.30;50.90
15328;DHT22;7764;51.430;6.840;2022-08-11T11:07:21;30.20;50.60
15328;DHT22;7764;51.430;6.840;2022-08-11T11:09:54;30.00;50.50
15328;DHT22;7764;51.430;6.840;2022-08-11T11:12:30;29.90;50.90
15328;DHT22;7764;51.430;6.840;2022-08-11T11:15:17;29.90;51.30
15328;DHT22;7764;51.430;6.840;2022-08-11T11:18:04;30.20;51.50
15328;DHT22;7764;51.430;6.840;2022-08-11T11:20:38;30.50;51.00
15328;DHT22;7764;51.430;6.840;2022-08-11T11:23:09;30.50;50.60
15328;DHT22;7764;51.430;6.840;2022-08-11T11:25:50;30.40;50.30
15328;DHT22;7764;51.430;6.840;2022-08-11T11:28:50;30.40;50.40
15328;DHT22;7764;51.430;6.840;2022-08-11T11:31:28;30.40;50.40
15328;DHT22;7764;51.430;6.840;2022-08-11T11:34:14;30.50;50.60
15328;DHT22;7764;51.430;6.840;2022-08-11T11:36:46;30.50;50.80
15328;DHT22;7764;51.430;6.840;2022-08-11T11:39:18;30.50;50.20
15328;DHT22;7764;51.430;6.840;2022-08-11T11:41:47;30.40;49.70
15328;DHT22;7764;51.430;6.840;2022-08-11T11:44:16;30.50;50.40
15328;DHT22;7764;51.430;6.840;2022-08-11T11:46:44;30.40;49.60
15328;DHT22;7764;51.430;6.840;2022-08-11T11:49:13;30.40;50.00
15328;DHT22;7764;51.430;6.840;2022-08-11T11:51:40;30.60;50.50
15328;DHT22;7764;51.430;6.840;2022-08-11T11:54:09;30.70;50.00
15328;DHT22;7764;51.430;6.840;2022-08-11T11:56:36;30.80;49.30
15328;DHT22;7764;51.430;6.840;2022-08-11T11:59:04;30.70;48.90
15328;DHT22;7764;51.430;6.840;2022-08-11T12:01:50;30.80;49.00
15328;DHT22;7764;51.430;6.840;2022-08-11T12:04:19;30.70;49.60
15328;DHT22;7764;51.430;6.840;2022-08-11T12:06:47;30.70;49.70
15328;DHT22;7764;51.430;6.840;2022-08-11T12:09:14;30.60;49.50
15328;DHT22;7764;51.430;6.840;2022-08-11T12:11:43;30.60;49.40
15328;DHT22;7764;51.430;6.840;2022-08-11T12:14:28;30.60;49.70
15328;DHT22;7764;51.430;6.840;2022-08-11T12:16:58;30.60;49.60
15328;DHT22;7764;51.430;6.840;2022-08-11T12:19:26;30.60;49.30
15328;DHT22;7764;51.430;6.840;2022-08-11T12:21:54;30.40;49.30
15328;DHT22;7764;51.430;6.840;2022-08-11T12:24:40;30.50;50.40
15328;DHT22;7764;51.430;6.840;2022-08-11T12:27:26;30.60;49.60
15328;DHT22;7764;51.430;6.840;2022-08-11T12:29:55;30.60;49.70
15328;DHT22;7764;51.430;6.840;2022-08-11T12:32:26;30.80;49.30
15328;DHT22;7764;51.430;6.840;2022-08-11T12:34:54;30.80;48.90
15328;DHT22;7764;51.430;6.840;2022-08-11T12:37:26;30.80;48.80
15328;DHT22;7764;51.430;6.840;2022-08-11T12:39:58;30.90;48.80
15328;DHT22;7764;51.430;6.840;2022-08-11T12:42:44;30.80;48.70
15328;DHT22;7764;51.430;6.840;2022-08-11T12:45:30;30.70;48.50
15328;DHT22;7764;51.430;6.840;2022-08-11T12:48:03;30.80;48.90
15328;DHT22;7764;51.430;6.840;2022-08-11T12:51:06;30.80;48.60
15328;DHT22;7764;51.430;6.840;2022-08-11T12:53:53;30.90;49.00
15328;DHT22;7764;51.430;6.840;2022-08-11T12:56:21;30.80;49.10
15328;DHT22;7764;51.430;6.840;2022-08-11T12:59:07;31.00;49.70
15328;DHT22;7764;51.430;6.840;2022-08-11T13:01:52;31.00;48.00
15328;DHT22;7764;51.430;6.840;2022-08-11T13:04:40;31.10;48.30
15328;DHT22;7764;51.430;6.840;2022-08-11T13:07:25;31.10;48.40
15328;DHT22;7764;51.430;6.840;2022-08-11T13:09:54;30.80;47.90
15328;DHT22;7764;51.430;6.840;2022-08-11T13:12:22;30.90;49.40
15328;DHT22;7764;51.430;6.840;2022-08-11T13:15:09;31.00;48.80
15328;DHT22;7764;51.430;6.840;2022-08-11T13:17:38;30.90;48.50
15328;DHT22;7764;51.430;6.840;2022-08-11T13:20:09;30.90;48.80
15328;DHT22;7764;51.430;6.840;2022-08-11T13:22:37;30.90;48.80
15328;DHT22;7764;51.430;6.840;2022-08-11T13:25:05;30.90;49.00
15328;DHT22;7764;51.430;6.840;2022-08-11T13:27:33;31.00;49.10
15328;DHT22;7764;51.430;6.840;2022-08-11T13:30:01;31.00;48.90
15328;DHT22;7764;51.430;6.840;2022-08-11T13:32:46;31.00;48.60
15328;DHT22;7764;51.430;6.840;2022-08-11T13:35:15;30.90;48.60
15328;DHT22;7764;51.430;6.840;2022-08-11T13:37:45;30.90;49.10
15328;DHT22;7764;51.430;6.840;2022-08-11T13:40:13;30.80;48.70
15328;DHT22;7764;51.430;6.840;2022-08-11T13:42:43;30.80;49.10
15328;DHT22;7764;51.430;6.840;2022-08-11T13:45:10;30.80;49.70
15328;DHT22;7764;51.430;6.840;2022-08-11T13:47:39;30.90;49.80
15328;DHT22;7764;51.430;6.840;2022-08-11T13:50:07;30.90;48.60
15328;DHT22;7764;51.430;6.840;2022-08-11T13:52:37;30.90;48.60
15328;DHT22;7764;51.430;6.840;2022-08-11T13:55:07;31.00;48.60
15328;DHT22;7764;51.430;6.840;2022-08-11T13:57:34;30.90;47.90
15328;DHT22;7764;51.430;6.840;2022-08-11T14:00:04;31.10;48.30
15328;DHT22;7764;51.430;6.840;2022-08-11T14:02:42;31.10;48.10
15328;DHT22;7764;51.430;6.840;2022-08-11T14:05:13;31.00;48.20
15328;DHT22;7764;51.430;6.840;2022-08-11T14:07:47;31.00;48.20
15328;DHT22;7764;51.430;6.840;2022-08-11T14:10:17;31.10;48.40
15328;DHT22;7764;51.430;6.840;2022-08-11T14:12:50;31.00;47.80
15328;DHT22;7764;51.430;6.840;2022-08-11T14:15:41;30.90;48.10
15328;DHT22;7764;51.430;6.840;2022-08-11T14:18:17;30.90;48.30
15328;DHT22;7764;51.430;6.840;2022-08-11T14:20:49;30.80;48.30
15328;DHT22;7764;51.430;6.840;2022-08-11T14:23:38;30.80;48.70
15328;DHT22;7764;51.430;6.840;2022-08-11T14:26:07;30.90;48.20
15328;DHT22;7764;51.430;6.840;2022-08-11T14:28:53;30.90;47.90
15328;DHT22;7764;51.430;6.840;2022-08-11T14:31:22;31.00;47.80
15328;DHT22;7764;51.430;6.840;2022-08-11T14:33:51;31.10;47.70
15328;DHT22;7764;51.430;6.840;2022-08-11T14:36:20;31.20;48.20
15328;DHT22;7764;51.430;6.840;2022-08-11T14:38:50;31.10;48.30
15328;DHT22;7764;51.430;6.840;2022-08-11T14:41:19;31.10;48.70
15328;DHT22;7764;51.430;6.840;2022-08-11T14:44:05;31.10;48.20
15328;DHT22;7764;51.430;6.840;2022-08-11T14:46:51;31.10;48.70
15328;DHT22;7764;51.430;6.840;2022-08-11T14:49:31;31.10;48.30
15328;DHT22;7764;51.430;6.840;2022-08-11T14:52:00;31.00;48.40
15328;DHT22;7764;51.430;6.840;2022-08-11T14:54:30;31.00;48.20
15328;DHT22;7764;51.430;6.840;2022-08-11T14:57:15;31.00;48.10
15328;DHT22;7764;51.430;6.840;2022-08-11T14:59:42;31.10;48.10
15328;DHT22;7764;51.430;6.840;2022-08-11T15:02:10;31.10;47.90
15328;DHT22;7764;51.430;6.840;2022-08-11T15:04:57;30.90;47.40
15328;DHT22;7764;51.430;6.840;2022-08-11T15:07:25;31.00;47.80
15328;DHT22;7764;51.430;6.840;2022-08-11T15:09:56;31.00;48.10
15328;DHT22;7764;51.430;6.840;2022-08-11T15:12:24;30.90;47.90
15328;DHT22;7764;51.430;6.840;2022-08-11T15:14:51;30.90;47.50
15328;DHT22;7764;51.430;6.840;2022-08-11T15:17:37;30.90;47.70
15328;DHT22;7764;51.430;6.840;2022-08-11T15:20:07;30.90;48.20
15328;DHT22;7764;51.430;6.840;2022-08-11T15:22:53;31.00;47.70
15328;DHT22;7764;51.430;6.840;2022-08-11T15:25:40;31.00;47.30
15328;DHT22;7764;51.430;6.840;2022-08-11T15:28:09;31.00;47.00
15328;DHT22;7764;51.430;6.840;2022-08-11T15:30:55;30.90;47.00
15328;DHT22;7764;51.430;6.840;2022-08-11T15:33:42;30.90;47.00
15328;DHT22;7764;51.430;6.840;2022-08-11T15:36:44;30.90;47.00
15328;DHT22;7764;51.430;6.840;2022-08-11T15:39:33;30.90;47.10
15328;DHT22;7764;51.430;6.840;2022-08-11T15:42:07;31.00;46.90
15328;DHT22;7764;51.430;6.840;2022-08-11T15:45:09;31.00;46.90
15328;DHT22;7764;51.430;6.840;2022-08-11T15:47:55;31.00;47.30
15328;DHT22;7764;51.430;6.840;2022-08-11T15:50:26;31.00;47.10
15328;DHT22;7764;51.430;6.840;2022-08-11T15:52:59;31.00;47.10
15328;DHT22;7764;51.430;6.840;2022-08-11T15:55:28;31.00;46.90
15328;DHT22;7764;51.430;6.840;2022-08-11T15:58:02;31.00;46.70
15328;DHT22;7764;51.430;6.840;2022-08-11T16:00:49;31.00;46.60
15328;DHT22;7764;51.430;6.840;2022-08-11T16:03:39;30.90;45.80
15328;DHT22;7764;51.430;6.840;2022-08-11T16:06:32;30.90;46.20
15328;DHT22;7764;51.430;6.840;2022-08-11T16:09:01;31.00;46.80
15328;DHT22;7764;51.430;6.840;2022-08-11T16:11:32;31.00;46.20
15328;DHT22;7764;51.430;6.840;2022-08-11T16:14:02;30.90;46.60
15328;DHT22;7764;51.430;6.840;2022-08-11T16:16:49;30.90;46.50
15328;DHT22;7764;51.430;6.840;2022-08-11T16:19:18;30.90;46.50
15328;DHT22;7764;51.430;6.840;2022-08-11T16:21:46;30.90;46.60
15328;DHT22;7764;51.430;6.840;2022-08-11T16:24:17;30.90;46.20
15328;DHT22;7764;51.430;6.840;2022-08-11T16:26:45;30.80;46.40
15328;DHT22;7764;51.430;6.840;2022-08-11T16:29:14;30.90;45.80
15328;DHT22;7764;51.430;6.840;2022-08-11T16:31:42;30.80;46.00
15328;DHT22;7764;51.430;6.840;2022-08-11T16:34:31;30.80;45.60
15328;DHT22;7764;51.430;6.840;2022-08-11T16:37:17;30.80;45.50
15328;DHT22;7764;51.430;6.840;2022-08-11T16:40:04;30.70;45.20
15328;DHT22;7764;51.430;6.840;2022-08-11T16:42:31;30.80;46.00
15328;DHT22;7764;51.430;6.840;2022-08-11T16:45:18;30.80;46.40
15328;DHT22;7764;51.430;6.840;2022-08-11T16:48:05;30.80;46.40
15328;DHT22;7764;51.430;6.840;2022-08-11T16:50:34;30.70;46.10
15328;DHT22;7764;51.430;6.840;2022-08-11T16:53:01;30.70;46.20
15328;DHT22;7764;51.430;6.840;2022-08-11T16:55:28;30.70;46.30
15328;DHT22;7764;51.430;6.840;2022-08-11T16:57:59;30.70;46.60
15328;DHT22;7764;51.430;6.840;2022-08-11T17:00:47;30.70;46.20
15328;DHT22;7764;51.430;6.840;2022-08-11T17:03:16;30.70;46.50
15328;DHT22;7764;51.430;6.840;2022-08-11T17:06:01;30.70;46.00
15328;DHT22;7764;51.430;6.840;2022-08-11T17:08:50;30.60;46.00
15328;DHT22;7764;51.430;6.840;2022-08-11T17:11:39;30.50;46.30
15328;DHT22;7764;51.430;6.840;2022-08-11T17:14:27;30.50;46.60
15328;DHT22;7764;51.430;6.840;2022-08-11T17:17:00;30.40;46.30
15328;DHT22;7764;51.430;6.840;2022-08-11T17:19:31;30.40;46.60
15328;DHT22;7764;51.430;6.840;2022-08-11T17:21:59;30.40;47.00
15328;DHT22;7764;51.430;6.840;2022-08-11T17:24:45;30.40;46.60
15328;DHT22;7764;51.430;6.840;2022-08-11T17:27:17;30.40;46.60
15328;DHT22;7764;51.430;6.840;2022-08-11T17:29:48;30.30;46.90
15328;DHT22;7764;51.430;6.840;2022-08-11T17:32:20;30.30;47.00
15328;DHT22;7764;51.430;6.840;2022-08-11T17:35:08;30.20;46.80